createdAt,value
2023-05-24T00:02:03.891Z,19.35
2023-05-24T00:05:08.160Z,19.37
2023-05-24T00:08:10.131Z,19.39
2023-05-24T00:11:11.958Z,19.06
2023-05-24T00:14:13.762Z,19.03
2023-05-24T00:17:15.594Z,19.03
2023-05-24T00:20:17.508Z,18.88
2023-05-24T00:23:19.399Z,19.00
2023-05-24T00:26:21.544Z,18.99
2023-05-24T00:29:32.202Z,18.48
2023-05-24T00:32:35.278Z,18.91
2023-05-24T00:35:38.380Z,18.79
2023-05-24T00:38:40.142Z,18.83
2023-05-24T00:41:41.922Z,18.77
2023-05-24T00:44:43.812Z,18.83
2023-05-24T00:47:46.892Z,18.86
2023-05-24T00:50:48.702Z,18.90
2023-05-24T00:53:50.804Z,18.85
2023-05-24T00:56:53.686Z,18.96
2023-05-24T00:59:56.878Z,18.97
2023-05-24T01:02:58.903Z,18.97
2023-05-24T01:06:06.466Z,18.99
2023-05-24T01:09:13.854Z,19.10
2023-05-24T01:12:26.196Z,19.13
2023-05-24T01:15:43.788Z,19.17
2023-05-24T01:18:52.855Z,19.12
2023-05-24T01:22:13.476Z,19.18
2023-05-24T01:25:42.683Z,19.15
2023-05-24T01:28:47.225Z,19.15
2023-05-24T01:31:50.523Z,19.15
2023-05-24T01:34:53.237Z,19.07
2023-05-24T01:37:55.069Z,18.90
2023-05-24T01:41:05.798Z,18.76
2023-05-24T01:44:27.729Z,18.48
2023-05-24T01:47:47.071Z,18.27
2023-05-24T01:50:57.877Z,18.02
2023-05-24T01:54:02.029Z,17.89
2023-05-24T01:57:07.819Z,17.87
2023-05-24T02:00:12.298Z,17.88
2023-05-24T02:03:17.241Z,17.95
2023-05-24T02:06:19.020Z,17.98
2023-05-24T02:09:21.007Z,18.00
2023-05-24T02:12:24.720Z,17.96
2023-05-24T02:15:30.534Z,17.97
2023-05-24T02:18:35.086Z,17.92
2023-05-24T02:21:37.108Z,17.96
2023-05-24T02:24:40.467Z,17.95
2023-05-24T02:27:47.144Z,18.04
2023-05-24T02:30:49.123Z,18.08
2023-05-24T02:33:51.217Z,18.08
2023-05-24T02:36:54.417Z,18.08
2023-05-24T02:39:56.404Z,18.05
2023-05-24T02:42:58.426Z,17.99
2023-05-24T02:46:00.399Z,17.86
2023-05-24T02:49:02.154Z,17.74
2023-05-24T02:52:04.633Z,17.59
2023-05-24T02:55:07.486Z,17.51
2023-05-24T02:58:10.220Z,17.31
2023-05-24T03:01:12.905Z,17.28
2023-05-24T03:04:15.226Z,17.32
2023-05-24T03:07:17.685Z,17.44
2023-05-24T03:10:19.627Z,17.50
2023-05-24T03:13:21.430Z,17.55
2023-05-24T03:16:23.245Z,17.57
2023-05-24T03:19:24.998Z,17.62
2023-05-24T03:22:27.092Z,17.62
2023-05-24T03:25:28.886Z,17.69
2023-05-24T03:28:30.648Z,17.68
2023-05-24T03:31:33.102Z,17.61
2023-05-24T03:34:35.232Z,17.55
2023-05-24T03:37:37.215Z,17.54
2023-05-24T03:40:39.256Z,17.52
2023-05-24T03:43:52.371Z,17.54
2023-05-24T03:46:54.954Z,17.47
2023-05-24T03:49:57.085Z,17.57
2023-05-24T03:52:59.080Z,17.59
2023-05-24T03:56:01.091Z,17.57
2023-05-24T03:59:04.218Z,17.59
2023-05-24T04:02:07.566Z,17.62
2023-05-24T04:05:12.380Z,17.63
2023-05-24T04:08:15.162Z,17.49
2023-05-24T04:11:17.683Z,17.64
2023-05-24T04:14:20.622Z,17.63
2023-05-24T04:17:24.899Z,17.61
2023-05-24T04:20:27.932Z,17.42
2023-05-24T04:23:29.819Z,17.61
2023-05-24T04:26:33.965Z,17.64
2023-05-24T04:29:35.912Z,17.64
2023-05-24T04:32:37.846Z,17.59
2023-05-24T04:35:40.802Z,17.55
2023-05-24T04:38:42.597Z,17.55
2023-05-24T04:41:45.716Z,17.66
2023-05-24T04:44:47.576Z,17.62
2023-05-24T04:47:49.431Z,17.66
2023-05-24T04:50:56.032Z,17.66
2023-05-24T04:53:57.803Z,17.71
2023-05-24T04:56:59.590Z,17.65
2023-05-24T05:00:02.192Z,17.45
2023-05-24T05:03:04.129Z,17.67
2023-05-24T05:06:06.123Z,17.66
2023-05-24T05:09:14.042Z,17.62
2023-05-24T05:12:16.225Z,17.75
2023-05-24T05:15:18.063Z,17.70
2023-05-24T05:18:19.924Z,17.71
2023-05-24T05:21:21.881Z,17.70
2023-05-24T05:24:23.694Z,17.75
2023-05-24T05:27:25.673Z,17.81
2023-05-24T05:30:27.497Z,17.81
2023-05-24T05:33:32.220Z,17.81
2023-05-24T05:36:34.073Z,17.36
2023-05-24T05:39:36.180Z,17.86
2023-05-24T05:42:37.969Z,17.92
2023-05-24T05:45:39.884Z,17.87
2023-05-24T05:48:41.809Z,17.94
2023-05-24T05:51:45.370Z,17.97
2023-05-24T05:54:47.176Z,17.93
2023-05-24T05:57:49.046Z,17.82
2023-05-24T06:00:51.274Z,17.87
2023-05-24T06:03:53.143Z,17.80
2023-05-24T06:06:55.065Z,17.88
2023-05-24T06:09:56.946Z,17.92
2023-05-24T06:12:58.732Z,17.90
2023-05-24T06:16:01.453Z,17.97
2023-05-24T06:19:06.304Z,17.72
2023-05-24T06:22:08.629Z,18.11
2023-05-24T06:25:10.565Z,18.17
2023-05-24T06:28:12.486Z,18.19
2023-05-24T06:31:14.348Z,18.20
2023-05-24T06:34:17.871Z,18.22
2023-05-24T06:37:25.076Z,18.24
2023-05-24T06:40:27.008Z,18.23
2023-05-24T06:43:28.752Z,18.20
2023-05-24T06:46:31.473Z,18.33
2023-05-24T06:49:33.410Z,18.37
2023-05-24T06:52:35.570Z,18.51
2023-05-24T06:55:37.691Z,18.58
2023-05-24T06:58:39.498Z,18.79
2023-05-24T07:01:43.166Z,18.89
2023-05-24T07:04:46.052Z,18.92
2023-05-24T07:07:48.176Z,19.01
2023-05-24T07:10:50.013Z,19.03
2023-05-24T07:13:51.842Z,18.94
2023-05-24T07:16:55.387Z,18.88
2023-05-24T07:19:57.570Z,18.80
2023-05-24T07:23:00.584Z,18.76
2023-05-24T07:26:02.478Z,18.80
2023-05-24T07:29:04.319Z,18.72
2023-05-24T07:32:06.335Z,18.65
2023-05-24T07:35:08.569Z,18.65
2023-05-24T07:38:10.592Z,18.63
2023-05-24T07:41:14.323Z,18.78
2023-05-24T07:44:16.111Z,18.81
2023-05-24T07:47:18.723Z,18.92
2023-05-24T07:50:20.426Z,19.03
2023-05-24T07:53:23.502Z,19.07
2023-05-24T07:56:25.714Z,19.13
2023-05-24T07:59:27.482Z,19.14
2023-05-24T08:02:31.473Z,19.12
2023-05-24T08:05:33.395Z,19.16
2023-05-24T08:08:35.773Z,19.23
2023-05-24T08:11:37.533Z,19.20
2023-05-24T08:14:39.344Z,19.31
2023-05-24T08:17:41.413Z,19.34
2023-05-24T08:20:43.373Z,19.38
2023-05-24T08:23:45.614Z,19.34
2023-05-24T08:26:47.613Z,19.35
2023-05-24T08:29:49.363Z,19.44
2023-05-24T08:32:52.465Z,19.43
2023-05-24T08:35:54.351Z,19.64
2023-05-24T08:38:56.316Z,19.72
2023-05-24T08:42:08.824Z,19.80
2023-05-24T08:45:13.679Z,19.89
2023-05-24T08:48:16.531Z,19.89
2023-05-24T08:51:18.853Z,19.93
2023-05-24T08:54:21.461Z,19.96
2023-05-24T08:57:23.827Z,19.81
2023-05-24T09:00:25.978Z,19.91
2023-05-24T09:03:28.208Z,19.82
2023-05-24T09:06:30.188Z,19.82
2023-05-24T09:09:34.636Z,19.82
2023-05-24T09:12:44.295Z,19.89
2023-05-24T09:15:46.594Z,19.75
2023-05-24T09:18:48.660Z,19.68
2023-05-24T09:21:50.540Z,19.63
2023-05-24T09:24:53.856Z,19.77
2023-05-24T09:27:56.527Z,19.91
2023-05-24T09:31:03.342Z,20.06
2023-05-24T09:34:11.665Z,20.18
2023-05-24T09:37:29.893Z,20.20
2023-05-24T09:40:34.509Z,20.35
2023-05-24T09:43:48.445Z,20.50
2023-05-24T09:46:50.427Z,20.68
2023-05-24T09:49:52.509Z,20.84
2023-05-24T09:52:56.209Z,20.99
2023-05-24T09:55:58.094Z,21.20
2023-05-24T09:59:06.133Z,21.19
2023-05-24T10:02:10.507Z,21.37
2023-05-24T10:05:13.431Z,21.40
2023-05-24T10:08:16.280Z,21.63
2023-05-24T10:11:19.184Z,21.86
2023-05-24T10:14:21.953Z,22.06
2023-05-24T10:17:28.134Z,22.26
2023-05-24T10:20:30.239Z,22.36
2023-05-24T10:23:33.526Z,22.48
2023-05-24T10:26:38.871Z,22.91
2023-05-24T10:29:46.723Z,23.38
2023-05-24T10:32:49.862Z,23.39
2023-05-24T10:35:53.615Z,23.47
2023-05-24T10:38:56.924Z,23.74
2023-05-24T10:42:03.034Z,23.91
2023-05-24T10:45:23.486Z,24.14
2023-05-24T10:48:28.246Z,24.52
2023-05-24T10:51:33.985Z,24.77
2023-05-24T10:54:44.709Z,24.63
2023-05-24T10:57:52.552Z,24.44
2023-05-24T11:00:54.360Z,24.72
2023-05-24T11:04:16.285Z,25.09
2023-05-24T11:07:19.449Z,25.25
2023-05-24T11:10:31.053Z,25.06
2023-05-24T11:13:33.675Z,24.58
2023-05-24T11:16:40.060Z,24.57
2023-05-24T11:19:52.302Z,24.49
2023-05-24T11:22:54.701Z,24.36
2023-05-24T11:25:57.306Z,24.46
2023-05-24T11:29:04.139Z,24.46
2023-05-24T11:32:07.922Z,24.57
2023-05-24T11:35:11.681Z,24.34
2023-05-24T11:38:15.755Z,24.35
2023-05-24T11:41:18.063Z,24.26
2023-05-24T11:44:20.112Z,24.06
2023-05-24T11:47:24.951Z,24.03
2023-05-24T11:50:28.589Z,24.04
2023-05-24T11:53:30.872Z,24.07
2023-05-24T11:56:34.152Z,23.70
2023-05-24T11:59:38.167Z,23.83
2023-05-24T12:02:40.378Z,23.73
2023-05-24T12:05:43.116Z,23.35
2023-05-24T12:08:45.151Z,23.24
2023-05-24T12:11:50.275Z,23.19
2023-05-24T12:14:55.848Z,23.12
2023-05-24T12:17:58.349Z,23.12
2023-05-24T12:21:00.217Z,23.12
2023-05-24T12:24:12.725Z,22.90
2023-05-24T12:27:14.510Z,23.06
2023-05-24T12:30:21.450Z,22.94
2023-05-24T12:33:24.465Z,22.87
2023-05-24T12:36:29.566Z,22.95
2023-05-24T12:39:32.414Z,22.91
2023-05-24T12:42:34.339Z,22.82
2023-05-24T12:45:37.322Z,22.82
2023-05-24T12:48:39.476Z,22.78
2023-05-24T12:51:41.232Z,22.76
2023-05-24T12:54:43.099Z,22.72
2023-05-24T12:57:53.164Z,22.87
2023-05-24T13:00:55.086Z,22.87
2023-05-24T13:03:57.312Z,22.87
2023-05-24T13:06:59.196Z,22.86
2023-05-24T13:10:01.048Z,22.70
2023-05-24T13:13:02.840Z,22.92
2023-05-24T13:16:08.971Z,22.97
2023-05-24T13:19:10.868Z,22.94
2023-05-24T13:22:13.050Z,22.95
2023-05-24T13:25:15.101Z,22.90
2023-05-24T13:28:17.131Z,22.78
2023-05-24T13:31:19.134Z,22.72
2023-05-24T13:34:21.049Z,22.64
2023-05-24T13:37:23.934Z,22.02
2023-05-24T13:40:26.332Z,22.04
2023-05-24T13:43:28.297Z,21.90
2023-05-24T13:46:30.477Z,21.54
2023-05-24T13:49:32.307Z,21.37
2023-05-24T13:52:34.220Z,21.36
2023-05-24T13:55:38.801Z,21.22
2023-05-24T13:58:40.722Z,21.15
2023-05-24T14:01:42.739Z,21.08
2023-05-24T14:04:44.565Z,20.86
2023-05-24T14:07:47.284Z,20.74
2023-05-24T14:10:50.124Z,20.55
2023-05-24T14:16:57.199Z,20.02
2023-05-24T14:19:59.154Z,19.92
2023-05-24T14:23:01.074Z,19.96
2023-05-24T14:26:02.922Z,20.06
2023-05-24T14:29:04.753Z,20.11
2023-05-24T14:32:06.740Z,19.98
2023-05-24T14:35:08.847Z,20.05
2023-05-24T14:38:11.572Z,19.85
2023-05-24T14:41:13.451Z,19.89
2023-05-24T14:44:15.272Z,19.87
2023-05-24T14:47:17.144Z,19.91
2023-05-24T14:50:18.991Z,19.98
2023-05-24T14:53:20.740Z,20.04
2023-05-24T14:56:23.089Z,20.07
2023-05-24T14:59:25.270Z,20.06
2023-05-24T15:02:27.891Z,20.02
2023-05-24T15:05:29.775Z,20.02
2023-05-24T15:08:31.787Z,20.04
2023-05-24T15:11:33.543Z,19.91
2023-05-24T15:14:35.335Z,19.90
2023-05-24T15:17:37.170Z,19.84
2023-05-24T15:20:39.093Z,19.82
2023-05-24T15:23:42.674Z,19.72
2023-05-24T15:26:44.528Z,19.56
2023-05-24T15:29:46.368Z,19.41
2023-05-24T15:32:48.190Z,19.29
2023-05-24T15:35:50.190Z,19.25
2023-05-24T15:38:52.046Z,19.19
2023-05-24T15:41:53.906Z,19.13
2023-05-24T15:44:55.959Z,19.11
2023-05-24T15:47:57.774Z,19.12
2023-05-24T15:51:53.824Z,19.29
2023-05-24T15:54:21.479Z,19.40
2023-05-24T15:57:23.268Z,19.43
2023-05-24T16:00:25.234Z,19.41
2023-05-24T16:03:27.046Z,19.37
2023-05-24T16:06:28.999Z,19.35
2023-05-24T16:09:31.249Z,19.34
2023-05-24T16:12:33.186Z,19.24
2023-05-24T16:15:36.180Z,19.28
2023-05-24T16:18:38.132Z,19.28
2023-05-24T16:21:40.008Z,19.31
2023-05-24T16:24:41.985Z,18.99
2023-05-24T16:27:43.906Z,19.38
2023-05-24T16:30:45.912Z,19.34
2023-05-24T16:33:47.761Z,19.34
2023-05-24T16:36:49.920Z,19.36
2023-05-24T16:39:51.720Z,19.15
2023-05-24T16:42:54.461Z,18.96
2023-05-24T16:45:56.401Z,19.01
2023-05-24T16:48:59.199Z,18.89
2023-05-24T16:52:02.205Z,18.85
2023-05-24T16:55:04.460Z,18.74
2023-05-24T16:58:06.687Z,18.77
2023-05-24T17:01:09.946Z,18.58
2023-05-24T17:04:11.868Z,18.54
2023-05-24T17:07:13.705Z,18.58
2023-05-24T17:10:15.442Z,18.58
2023-05-24T17:13:17.239Z,18.54
2023-05-24T17:16:19.364Z,18.67
2023-05-24T17:19:21.621Z,18.81
2023-05-24T17:22:23.380Z,18.87
2023-05-24T17:25:25.182Z,18.78
2023-05-24T17:28:27.879Z,18.64
2023-05-24T17:31:33.110Z,18.57
2023-05-24T17:34:59.070Z,18.57
2023-05-24T17:41:24.936Z,18.22
2023-05-24T17:44:29.651Z,18.30
2023-05-24T17:47:58.933Z,18.27
2023-05-24T17:51:23.304Z,17.85
2023-05-24T17:57:51.382Z,18.09
2023-05-24T18:04:44.929Z,17.74
2023-05-24T18:11:08.569Z,18.19
2023-05-24T18:14:10.882Z,18.18
2023-05-24T18:17:12.694Z,18.10
2023-05-24T18:20:15.384Z,18.03
2023-05-24T18:23:17.996Z,17.99
2023-05-24T18:26:19.751Z,17.96
2023-05-24T18:29:21.538Z,17.90
2023-05-24T18:32:23.547Z,17.92
2023-05-24T18:35:25.541Z,17.89
2023-05-24T18:38:27.365Z,17.88
2023-05-24T18:41:29.121Z,17.79
2023-05-24T18:44:30.962Z,17.75
2023-05-24T18:47:32.812Z,17.70
2023-05-24T18:50:34.755Z,17.21
2023-05-24T18:53:36.534Z,17.56
2023-05-24T18:56:38.340Z,17.57
2023-05-24T18:59:40.055Z,17.58
2023-05-24T19:02:41.998Z,17.41
2023-05-24T19:05:44.439Z,17.54
2023-05-24T19:08:46.384Z,17.61
2023-05-24T19:11:49.020Z,17.08
2023-05-24T19:14:50.907Z,17.35
2023-05-24T19:17:53.503Z,17.34
2023-05-24T19:20:55.352Z,17.35
2023-05-24T19:23:57.382Z,17.28
2023-05-24T19:27:01.287Z,17.14
2023-05-24T19:30:03.167Z,17.02
2023-05-24T19:33:05.235Z,16.90
2023-05-24T19:36:08.734Z,16.61
2023-05-24T19:39:12.566Z,16.76
2023-05-24T19:42:14.440Z,16.71
2023-05-24T19:45:16.471Z,16.72
2023-05-24T19:48:18.276Z,16.74
2023-05-24T19:51:27.924Z,16.79
2023-05-24T19:54:33.746Z,16.78
2023-05-24T19:57:35.908Z,16.86
2023-05-24T20:00:37.634Z,16.85
2023-05-24T20:03:39.785Z,16.88
2023-05-24T20:06:41.698Z,16.77
2023-05-24T20:09:43.511Z,16.65
2023-05-24T20:12:45.554Z,16.43
2023-05-24T20:15:47.344Z,16.36
2023-05-24T20:18:49.242Z,16.28
2023-05-24T20:21:51.044Z,16.15
2023-05-24T20:24:52.964Z,16.10
2023-05-24T20:27:54.779Z,16.05
2023-05-24T20:30:56.551Z,16.00
2023-05-24T20:33:58.547Z,15.95
2023-05-24T20:37:00.508Z,15.90
2023-05-24T20:40:05.275Z,15.87
2023-05-24T20:43:08.561Z,15.84
2023-05-24T20:46:10.830Z,15.82
2023-05-24T20:49:12.809Z,15.77
2023-05-24T20:52:16.286Z,15.76
2023-05-24T20:55:18.963Z,15.82
2023-05-24T20:58:20.819Z,15.60
2023-05-24T21:01:23.278Z,15.87
2023-05-24T21:04:26.568Z,15.92
2023-05-24T21:07:28.355Z,15.88
2023-05-24T21:10:30.326Z,15.83
2023-05-24T21:13:32.182Z,15.86
2023-05-24T21:16:34.070Z,15.97
2023-05-24T21:19:35.959Z,15.93
2023-05-24T21:22:37.724Z,15.74
2023-05-24T21:25:39.855Z,15.83
2023-05-24T21:28:41.727Z,15.65
2023-05-24T21:31:43.714Z,15.73
2023-05-24T21:34:45.685Z,15.71
2023-05-24T21:37:47.474Z,15.61
2023-05-24T21:40:49.339Z,15.51
2023-05-24T21:43:51.107Z,15.54
2023-05-24T21:46:53.014Z,15.54
2023-05-24T21:49:55.027Z,15.56
2023-05-24T21:52:56.920Z,15.44
2023-05-24T21:55:58.733Z,15.67
2023-05-24T21:59:00.583Z,15.63
2023-05-24T22:02:02.338Z,15.63
2023-05-24T22:05:05.421Z,15.41
2023-05-24T22:08:07.286Z,15.55
2023-05-24T22:11:09.140Z,15.54
2023-05-24T22:14:11.035Z,15.53
2023-05-24T22:17:14.307Z,15.48
2023-05-24T22:20:17.084Z,15.52
2023-05-24T22:23:18.876Z,15.56
2023-05-24T22:26:20.681Z,15.59
2023-05-24T22:29:22.591Z,15.56
2023-05-24T22:32:24.532Z,15.49
2023-05-24T22:35:26.407Z,15.42
2023-05-24T22:38:28.210Z,15.41
2023-05-24T22:41:30.146Z,15.38
2023-05-24T22:44:32.021Z,15.33
2023-05-24T22:47:34.069Z,15.31
2023-05-24T22:50:36.066Z,15.34
2023-05-24T22:53:39.669Z,15.33
2023-05-24T22:56:41.880Z,15.37
2023-05-24T22:59:45.980Z,15.36
2023-05-24T23:02:48.057Z,15.13
2023-05-24T23:05:53.657Z,15.27
2023-05-24T23:08:55.740Z,15.36
2023-05-24T23:11:58.658Z,15.37
2023-05-24T23:15:00.731Z,15.46
2023-05-24T23:18:03.128Z,15.41
2023-05-24T23:21:04.960Z,15.40
2023-05-24T23:24:07.178Z,15.34
2023-05-24T23:27:09.174Z,15.30
2023-05-24T23:30:11.128Z,15.29
2023-05-24T23:33:12.854Z,15.31
2023-05-24T23:36:14.603Z,15.32
2023-05-24T23:39:16.903Z,15.31
2023-05-24T23:42:18.692Z,15.28
2023-05-24T23:45:20.495Z,15.19
2023-05-24T23:48:23.456Z,15.28
2023-05-24T23:51:25.413Z,15.25
2023-05-24T23:54:27.189Z,15.20
2023-05-24T23:57:29.898Z,15.11
